createdAt,value
2023-01-12T00:00:29.739Z,1.40
2023-01-12T00:01:29.677Z,1.90
2023-01-12T00:02:29.764Z,1.80
2023-01-12T00:03:29.674Z,1.60
2023-01-12T00:04:29.700Z,1.30
2023-01-12T00:05:29.632Z,1.50
2023-01-12T00:06:29.617Z,1.30
2023-01-12T00:07:29.639Z,1.70
2023-01-12T00:08:29.595Z,1.40
2023-01-12T00:09:29.589Z,1.60
2023-01-12T00:10:29.572Z,1.50
2023-01-12T00:11:29.569Z,1.30
2023-01-12T00:12:29.562Z,1.70
2023-01-12T00:13:29.588Z,1.50
2023-01-12T00:14:29.542Z,1.20
2023-01-12T00:15:29.524Z,1.30
2023-01-12T00:16:29.567Z,1.10
2023-01-12T00:17:29.511Z,1.40
2023-01-12T00:18:29.487Z,1.00
2023-01-12T00:19:29.484Z,1.30
2023-01-12T00:20:29.466Z,1.20
2023-01-12T00:21:29.458Z,1.60
2023-01-12T00:22:29.452Z,1.40
2023-01-12T00:23:29.438Z,1.30
2023-01-12T00:24:29.428Z,1.10
2023-01-12T00:25:29.423Z,1.40
2023-01-12T00:26:29.401Z,1.30
2023-01-12T00:27:29.408Z,1.60
2023-01-12T00:28:29.379Z,1.30
2023-01-12T00:29:29.374Z,1.40
2023-01-12T00:30:29.353Z,1.20
2023-01-12T00:31:29.430Z,1.10
2023-01-12T00:32:29.347Z,1.40
2023-01-12T00:33:29.327Z,1.70
2023-01-12T00:34:29.875Z,1.90
2023-01-12T00:35:29.309Z,1.50
2023-01-12T00:36:29.290Z,1.50
2023-01-12T00:37:29.297Z,1.50
2023-01-12T00:38:29.267Z,2.20
2023-01-12T00:39:29.262Z,1.70
2023-01-12T00:40:29.243Z,2.00
2023-01-12T00:41:29.241Z,2.40
2023-01-12T00:42:29.233Z,1.80
2023-01-12T00:43:29.216Z,1.60
2023-01-12T00:44:29.201Z,1.90
2023-01-12T00:45:29.206Z,1.90
2023-01-12T00:46:29.236Z,1.50
2023-01-12T00:47:29.182Z,2.30
2023-01-12T00:48:29.166Z,1.90
2023-01-12T00:49:29.162Z,2.40
2023-01-12T00:50:29.153Z,2.10
2023-01-12T00:51:29.129Z,2.10
2023-01-12T00:52:31.223Z,2.20
2023-01-12T00:53:29.110Z,2.50
2023-01-12T00:54:29.093Z,2.00
2023-01-12T00:55:29.085Z,2.30
2023-01-12T00:56:29.068Z,2.40
2023-01-12T00:57:29.076Z,1.70
2023-01-12T00:58:29.052Z,2.50
2023-01-12T00:59:29.039Z,2.40
2023-01-12T01:00:29.026Z,2.60
2023-01-12T01:01:29.163Z,2.10
2023-01-12T01:02:29.089Z,2.50
2023-01-12T01:03:28.996Z,2.30
2023-01-12T01:04:28.987Z,2.10
2023-01-12T01:05:28.974Z,2.40
2023-01-12T01:06:28.980Z,2.20
2023-01-12T01:07:28.957Z,2.40
2023-01-12T01:08:28.935Z,2.10
2023-01-12T01:09:28.934Z,2.60
2023-01-12T01:10:28.915Z,1.20
2023-01-12T01:11:28.912Z,2.50
2023-01-12T01:12:28.904Z,2.00
2023-01-12T01:13:28.884Z,2.70
2023-01-12T01:14:28.871Z,2.20
2023-01-12T01:15:28.873Z,2.60
2023-01-12T01:16:28.854Z,2.30
2023-01-12T01:17:28.883Z,2.40
2023-01-12T01:18:28.828Z,2.50
2023-01-12T01:19:28.818Z,2.30
2023-01-12T01:20:28.805Z,2.60
2023-01-12T01:21:28.802Z,3.10
2023-01-12T01:22:28.811Z,2.30
2023-01-12T01:23:28.775Z,2.40
2023-01-12T01:24:28.760Z,2.90
2023-01-12T01:25:28.752Z,2.40
2023-01-12T01:26:28.738Z,2.60
2023-01-12T01:27:28.735Z,2.70
2023-01-12T01:28:28.733Z,2.90
2023-01-12T01:29:28.710Z,2.70
2023-01-12T01:30:28.700Z,2.40
2023-01-12T01:31:28.779Z,2.70
2023-01-12T01:32:28.681Z,2.90
2023-01-12T01:33:28.679Z,2.70
2023-01-12T01:34:28.658Z,3.00
2023-01-12T01:35:28.651Z,2.90
2023-01-12T01:36:28.626Z,2.20
2023-01-12T01:37:28.621Z,3.30
2023-01-12T01:38:28.620Z,2.60
2023-01-12T01:39:28.618Z,2.50
2023-01-12T01:40:28.582Z,3.30
2023-01-12T01:41:28.577Z,2.00
2023-01-12T01:42:28.721Z,2.60
2023-01-12T01:43:28.561Z,3.00
2023-01-12T01:44:28.539Z,3.00
2023-01-12T01:45:28.539Z,2.80
2023-01-12T01:46:28.535Z,3.20
2023-01-12T01:47:28.508Z,3.00
2023-01-12T01:48:28.505Z,3.20
2023-01-12T01:49:28.486Z,2.80
2023-01-12T01:50:28.476Z,2.60
2023-01-12T01:51:28.465Z,3.00
2023-01-12T01:52:28.449Z,3.20
2023-01-12T01:53:28.454Z,3.00
2023-01-12T01:54:28.434Z,3.40
2023-01-12T01:55:28.430Z,2.90
2023-01-12T01:56:28.406Z,3.40
2023-01-12T01:57:28.402Z,3.00
2023-01-12T01:58:28.394Z,3.20
2023-01-12T01:59:28.377Z,3.30
2023-01-12T02:00:28.370Z,3.30
2023-01-12T02:01:28.477Z,2.90
2023-01-12T02:02:28.402Z,3.20
2023-01-12T02:03:29.414Z,3.20
2023-01-12T02:04:28.319Z,2.80
2023-01-12T02:05:28.316Z,3.00
2023-01-12T02:06:28.293Z,3.10
2023-01-12T02:07:28.293Z,3.30
2023-01-12T02:08:28.283Z,2.90
2023-01-12T02:09:28.286Z,2.70
2023-01-12T02:10:28.252Z,3.40
2023-01-12T02:11:28.246Z,3.10
2023-01-12T02:12:28.230Z,3.30
2023-01-12T02:13:28.231Z,3.00
2023-01-12T02:14:28.231Z,3.40
2023-01-12T02:15:28.204Z,2.70
2023-01-12T02:16:28.222Z,3.30
2023-01-12T02:17:28.180Z,2.80
2023-01-12T02:18:28.175Z,2.90
2023-01-12T02:19:28.163Z,2.90
2023-01-12T02:20:28.145Z,3.00
2023-01-12T02:21:28.133Z,2.60
2023-01-12T02:22:28.127Z,2.90
2023-01-12T02:23:28.139Z,3.30
2023-01-12T02:24:28.105Z,3.60
2023-01-12T02:25:28.089Z,3.10
2023-01-12T02:26:28.079Z,3.10
2023-01-12T02:27:28.067Z,2.60
2023-01-12T02:28:28.064Z,3.30
2023-01-12T02:29:28.048Z,3.10
2023-01-12T02:30:28.030Z,3.10
2023-01-12T02:31:28.073Z,2.80
2023-01-12T02:32:28.011Z,3.00
2023-01-12T02:33:28.013Z,2.90
2023-01-12T02:34:27.996Z,3.00
2023-01-12T02:35:27.985Z,3.00
2023-01-12T02:36:27.963Z,3.50
2023-01-12T02:37:27.959Z,3.20
2023-01-12T02:38:27.953Z,3.10
2023-01-12T02:39:27.942Z,3.30
2023-01-12T02:40:27.920Z,3.70
2023-01-12T02:41:27.913Z,3.10
2023-01-12T02:42:27.903Z,3.60
2023-01-12T02:43:27.912Z,3.20
2023-01-12T02:44:27.876Z,3.30
2023-01-12T02:45:27.877Z,3.10
2023-01-12T02:46:27.908Z,3.00
2023-01-12T02:47:27.846Z,3.60
2023-01-12T02:48:27.843Z,3.10
2023-01-12T02:49:27.829Z,3.50
2023-01-12T02:50:27.809Z,3.10
2023-01-12T02:51:27.808Z,2.90
2023-01-12T02:52:27.790Z,2.90
2023-01-12T02:53:27.803Z,3.50
2023-01-12T02:54:27.780Z,3.50
2023-01-12T02:55:27.756Z,3.60
2023-01-12T02:56:27.741Z,3.60
2023-01-12T02:57:27.745Z,3.40
2023-01-12T02:58:27.731Z,3.50
2023-01-12T02:59:27.720Z,3.20
2023-01-12T03:00:27.735Z,3.70
2023-01-12T03:01:27.802Z,4.10
2023-01-12T03:02:27.706Z,3.40
2023-01-12T03:03:27.676Z,4.00
2023-01-12T03:04:27.661Z,3.70
2023-01-12T03:05:27.646Z,3.40
2023-01-12T03:06:27.642Z,3.70
2023-01-12T03:07:27.623Z,4.30
2023-01-12T03:08:27.649Z,3.90
2023-01-12T03:09:27.617Z,4.20
2023-01-12T03:10:27.596Z,4.00
2023-01-12T03:11:27.587Z,4.10
2023-01-12T03:12:27.572Z,4.00
2023-01-12T03:13:27.576Z,4.10
2023-01-12T03:14:27.572Z,4.10
2023-01-12T03:15:27.537Z,4.10
2023-01-12T03:16:27.564Z,4.20
2023-01-12T03:17:27.521Z,4.40
2023-01-12T03:18:27.514Z,4.40
2023-01-12T03:19:27.496Z,3.90
2023-01-12T03:20:27.478Z,3.50
2023-01-12T03:21:27.473Z,4.00
2023-01-12T03:22:27.458Z,3.50
2023-01-12T03:23:27.460Z,4.40
2023-01-12T03:24:27.445Z,4.40
2023-01-12T03:25:27.428Z,4.60
2023-01-12T03:26:27.417Z,3.50
2023-01-12T03:27:27.409Z,3.40
2023-01-12T03:28:28.472Z,4.00
2023-01-12T03:29:27.403Z,4.30
2023-01-12T03:30:28.775Z,4.90
2023-01-12T03:31:27.374Z,4.50
2023-01-12T03:32:28.610Z,4.40
2023-01-12T03:33:27.356Z,4.90
2023-01-12T03:34:27.322Z,4.30
2023-01-12T03:35:27.324Z,4.20
2023-01-12T03:36:27.304Z,4.40
2023-01-12T03:37:27.299Z,3.90
2023-01-12T03:38:27.300Z,4.20
2023-01-12T03:39:27.282Z,4.20
2023-01-12T03:40:27.264Z,3.80
2023-01-12T03:41:27.255Z,3.70
2023-01-12T03:42:27.401Z,3.80
2023-01-12T03:43:27.233Z,4.00
2023-01-12T03:44:27.233Z,3.70
2023-01-12T03:45:27.215Z,3.00
2023-01-12T03:46:27.256Z,3.40
2023-01-12T03:47:27.210Z,2.40
2023-01-12T03:48:27.176Z,2.00
2023-01-12T03:49:27.176Z,3.20
2023-01-12T03:50:27.150Z,3.00
2023-01-12T03:51:27.153Z,3.20
2023-01-12T03:52:27.127Z,3.00
2023-01-12T03:53:27.121Z,1.30
2023-01-12T03:54:27.810Z,1.90
2023-01-12T03:55:27.100Z,1.40
2023-01-12T03:56:27.085Z,1.00
2023-01-12T03:57:27.092Z,0.90
2023-01-12T03:58:27.059Z,1.00
2023-01-12T03:59:27.064Z,0.90
2023-01-12T04:00:27.051Z,1.10
2023-01-12T04:01:27.191Z,1.00
2023-01-12T04:02:27.019Z,1.10
2023-01-12T04:03:27.028Z,1.00
2023-01-12T04:04:27.008Z,1.00
2023-01-12T04:05:26.988Z,0.90
2023-01-12T04:06:26.974Z,1.50
2023-01-12T04:07:26.977Z,0.90
2023-01-12T04:08:26.954Z,1.40
2023-01-12T04:09:26.958Z,1.10
2023-01-12T04:10:26.930Z,0.90
2023-01-12T04:11:26.927Z,1.40
2023-01-12T04:12:26.908Z,0.80
2023-01-12T04:13:26.899Z,1.00
2023-01-12T04:14:26.893Z,1.00
2023-01-12T04:15:26.879Z,0.90
2023-01-12T04:16:26.912Z,1.10
2023-01-12T04:17:26.894Z,1.00
2023-01-12T04:18:26.838Z,1.00
2023-01-12T04:19:26.847Z,0.90
2023-01-12T04:20:26.838Z,1.10
2023-01-12T04:21:26.810Z,0.50
2023-01-12T04:22:26.795Z,0.50
2023-01-12T04:23:26.797Z,1.00
2023-01-12T04:24:26.783Z,1.20
2023-01-12T04:25:26.787Z,0.70
2023-01-12T04:26:26.753Z,1.10
2023-01-12T04:27:26.743Z,0.30
2023-01-12T04:28:26.734Z,1.30
2023-01-12T04:29:26.735Z,0.90
2023-01-12T04:30:26.709Z,0.90
2023-01-12T04:31:26.737Z,1.40
2023-01-12T04:32:26.692Z,1.20
2023-01-12T04:33:26.680Z,1.00
2023-01-12T04:34:26.677Z,0.70
2023-01-12T04:35:26.677Z,0.80
2023-01-12T04:36:26.665Z,1.10
2023-01-12T04:37:26.635Z,0.80
2023-01-12T04:38:26.624Z,1.40
2023-01-12T04:39:26.623Z,1.40
2023-01-12T04:40:26.597Z,1.30
2023-01-12T04:41:26.587Z,0.80
2023-01-12T04:42:26.578Z,0.60
2023-01-12T04:43:26.573Z,1.10
2023-01-12T04:44:26.583Z,1.50
2023-01-12T04:45:26.553Z,0.90
2023-01-12T04:46:26.542Z,1.10
2023-01-12T04:47:26.535Z,1.20
2023-01-12T04:48:26.509Z,0.90
2023-01-12T04:49:26.513Z,0.10
2023-01-12T04:50:26.485Z,0.00
2023-01-12T04:51:26.481Z,0.10
2023-01-12T04:52:26.468Z,0.20
2023-01-12T04:53:26.483Z,1.50
2023-01-12T04:54:26.464Z,0.20
2023-01-12T04:55:26.435Z,0.80
2023-01-12T04:56:26.419Z,0.00
2023-01-12T04:57:26.415Z,0.20
2023-01-12T04:58:26.398Z,0.40
2023-01-12T04:59:26.429Z,0.10
2023-01-12T05:00:26.376Z,0.00
2023-01-12T05:01:26.487Z,0.30
2023-01-12T05:02:26.355Z,0.50
2023-01-12T05:03:26.346Z,0.20
2023-01-12T05:04:26.373Z,0.10
2023-01-12T05:05:26.323Z,0.30
2023-01-12T05:06:26.309Z,0.20
2023-01-12T05:07:26.306Z,0.20
2023-01-12T05:08:26.295Z,0.30
2023-01-12T05:09:26.281Z,0.20
2023-01-12T05:10:26.274Z,0.00
2023-01-12T05:11:26.260Z,0.30
2023-01-12T05:12:26.244Z,0.60
2023-01-12T05:13:26.247Z,0.30
2023-01-12T05:14:26.225Z,0.30
2023-01-12T05:15:26.221Z,0.10
2023-01-12T05:16:26.234Z,0.00
2023-01-12T05:17:26.198Z,0.80
2023-01-12T05:18:26.176Z,0.00
2023-01-12T05:19:26.185Z,0.10
2023-01-12T05:20:26.174Z,0.00
2023-01-12T05:21:26.149Z,0.10
2023-01-12T05:22:26.137Z,0.00
2023-01-12T05:23:26.126Z,0.00
2023-01-12T05:24:26.126Z,0.10
2023-01-12T05:25:26.112Z,0.00
2023-01-12T05:26:26.089Z,0.50
2023-01-12T05:27:26.085Z,0.30
2023-01-12T05:28:26.067Z,0.10
2023-01-12T05:29:26.062Z,0.00
2023-01-12T05:30:26.104Z,0.00
2023-01-12T05:31:26.052Z,0.00
2023-01-12T05:32:26.022Z,0.50
2023-01-12T05:33:26.034Z,0.00
2023-01-12T05:34:26.017Z,0.30
2023-01-12T05:35:26.005Z,0.00
2023-01-12T05:36:26.685Z,0.20
2023-01-12T05:37:25.981Z,0.10
2023-01-12T05:38:25.954Z,0.00
2023-01-12T05:39:25.948Z,0.00
2023-01-12T05:40:25.962Z,0.00
2023-01-12T05:41:25.933Z,0.00
2023-01-12T05:42:25.910Z,0.00
2023-01-12T05:43:25.904Z,0.10
2023-01-12T05:44:25.889Z,0.10
2023-01-12T05:45:25.893Z,0.30
2023-01-12T05:46:25.970Z,0.50
2023-01-12T05:47:25.877Z,0.00
2023-01-12T05:48:25.845Z,0.00
2023-01-12T05:49:25.847Z,0.20
2023-01-12T05:50:25.832Z,0.00
2023-01-12T05:51:25.822Z,0.00
2023-01-12T05:52:25.802Z,0.00
2023-01-12T05:53:25.795Z,0.00
2023-01-12T05:54:25.778Z,0.20
2023-01-12T05:55:25.798Z,0.00
2023-01-12T05:56:25.992Z,0.00
2023-01-12T05:57:25.751Z,0.10
2023-01-12T05:58:25.732Z,0.00
2023-01-12T05:59:25.726Z,0.00
2023-01-12T06:00:25.723Z,0.00
2023-01-12T06:01:25.763Z,0.10
2023-01-12T06:02:25.860Z,0.30
2023-01-12T06:03:27.777Z,0.00
2023-01-12T06:04:25.712Z,0.20
2023-01-12T06:05:25.669Z,0.00
2023-01-12T06:06:25.651Z,0.00
2023-01-12T06:07:25.637Z,0.00
2023-01-12T06:08:25.632Z,0.00
2023-01-12T06:09:25.619Z,0.00
2023-01-12T06:10:25.621Z,0.00
2023-01-12T06:11:25.596Z,0.00
2023-01-12T06:12:25.589Z,0.00
2023-01-12T06:13:25.584Z,0.00
2023-01-12T06:14:25.567Z,0.00
2023-01-12T06:15:25.562Z,0.00
2023-01-12T06:16:25.544Z,0.00
2023-01-12T06:17:25.572Z,0.00
2023-01-12T06:18:25.518Z,0.00
2023-01-12T06:19:25.546Z,0.30
2023-01-12T06:20:25.517Z,0.10
2023-01-12T06:21:25.489Z,0.00
2023-01-12T06:22:25.474Z,0.00
2023-01-12T06:23:35.026Z,0.00
2023-01-12T06:24:25.463Z,0.00
2023-01-12T06:25:25.456Z,0.00
2023-01-12T06:26:25.433Z,0.00
2023-01-12T06:27:25.417Z,0.10
2023-01-12T06:28:25.413Z,0.00
2023-01-12T06:29:25.394Z,0.00
2023-01-12T06:30:25.456Z,0.00
2023-01-12T06:31:25.423Z,0.00
2023-01-12T06:32:25.364Z,0.20
2023-01-12T06:33:25.357Z,0.00
2023-01-12T06:34:25.340Z,0.10
2023-01-12T06:35:25.328Z,0.00
2023-01-12T06:36:25.334Z,0.00
2023-01-12T06:37:25.304Z,0.00
2023-01-12T06:38:25.301Z,0.00
2023-01-12T06:39:25.283Z,0.00
2023-01-12T06:40:25.274Z,0.00
2023-01-12T06:41:25.273Z,0.40
2023-01-12T06:42:25.253Z,0.00
2023-01-12T06:43:25.234Z,0.00
2023-01-12T06:44:25.230Z,0.00
2023-01-12T06:45:25.222Z,0.00
2023-01-12T06:46:25.238Z,0.00
2023-01-12T06:47:25.197Z,0.00
2023-01-12T06:48:25.190Z,0.00
2023-01-12T06:49:25.173Z,0.00
2023-01-12T06:50:25.171Z,0.00
2023-01-12T06:51:25.163Z,0.00
2023-01-12T06:52:25.144Z,0.00
2023-01-12T06:53:25.127Z,0.00
2023-01-12T06:54:25.124Z,0.00
2023-01-12T06:55:25.115Z,0.00
2023-01-12T06:56:25.111Z,0.00
2023-01-12T06:57:25.085Z,0.00
2023-01-12T06:58:25.107Z,0.00
2023-01-12T06:59:25.068Z,0.00
2023-01-12T07:00:25.068Z,0.00
2023-01-12T07:01:25.232Z,0.00
2023-01-12T07:02:25.034Z,0.00
2023-01-12T07:03:25.059Z,0.00
2023-01-12T07:04:25.141Z,0.00
2023-01-12T07:05:24.999Z,0.00
2023-01-12T07:06:25.021Z,0.00
2023-01-12T07:07:24.973Z,0.00
2023-01-12T07:08:24.972Z,0.00
2023-01-12T07:09:24.959Z,0.00
2023-01-12T07:10:24.947Z,0.00
2023-01-12T07:11:24.940Z,0.00
2023-01-12T07:12:24.927Z,0.00
2023-01-12T07:13:24.909Z,0.00
2023-01-12T07:14:24.904Z,0.00
2023-01-12T07:15:24.889Z,0.00
2023-01-12T07:16:24.896Z,0.00
2023-01-12T07:17:24.870Z,0.00
2023-01-12T07:18:24.864Z,0.00
2023-01-12T07:19:24.843Z,0.00
2023-01-12T07:20:24.851Z,0.00
2023-01-12T07:21:24.833Z,0.00
2023-01-12T07:22:24.814Z,0.00
2023-01-12T07:23:24.797Z,0.00
2023-01-12T07:24:24.799Z,0.00
2023-01-12T07:25:24.777Z,0.00
2023-01-12T07:26:24.861Z,0.00
2023-01-12T07:27:24.756Z,0.00
2023-01-12T07:28:24.750Z,0.00
2023-01-12T07:29:24.761Z,0.00
2023-01-12T07:30:24.723Z,0.00
2023-01-12T07:31:24.796Z,0.00
2023-01-12T07:32:24.709Z,0.00
2023-01-12T07:33:24.692Z,0.00
2023-01-12T07:34:24.677Z,0.00
2023-01-12T07:35:24.672Z,0.00
2023-01-12T07:36:24.654Z,0.00
2023-01-12T07:37:24.670Z,0.00
2023-01-12T07:38:24.632Z,0.00
2023-01-12T07:39:24.623Z,0.00
2023-01-12T07:40:24.612Z,0.00
2023-01-12T07:41:24.605Z,0.00
2023-01-12T07:42:24.618Z,0.00
2023-01-12T07:43:24.581Z,0.00
2023-01-12T07:44:24.570Z,0.00
2023-01-12T07:45:24.560Z,0.00
2023-01-12T07:46:24.608Z,0.00
2023-01-12T07:47:24.560Z,0.00
2023-01-12T07:48:24.526Z,0.00
2023-01-12T07:49:24.520Z,0.00
2023-01-12T07:50:24.507Z,0.00
2023-01-12T07:51:24.525Z,0.00
2023-01-12T07:52:24.488Z,0.00
2023-01-12T07:53:24.482Z,0.00
2023-01-12T07:54:24.459Z,0.00
2023-01-12T07:55:24.456Z,0.00
2023-01-12T07:56:24.443Z,0.00
2023-01-12T07:57:24.443Z,0.00
2023-01-12T07:58:24.424Z,0.00
2023-01-12T07:59:24.409Z,0.00
2023-01-12T08:00:24.396Z,0.00
2023-01-12T08:01:24.491Z,0.00
2023-01-12T08:02:24.469Z,0.00
2023-01-12T08:03:24.365Z,0.00
2023-01-12T08:04:24.348Z,0.00
2023-01-12T08:05:24.375Z,0.00
2023-01-12T08:06:24.337Z,0.00
2023-01-12T08:07:24.329Z,0.00
2023-01-12T08:08:24.307Z,0.00
2023-01-12T08:09:24.304Z,0.00
2023-01-12T08:10:24.290Z,0.00
2023-01-12T08:11:24.272Z,0.00
2023-01-12T08:12:24.269Z,0.00
2023-01-12T08:13:24.252Z,0.00
2023-01-12T08:14:24.250Z,0.00
2023-01-12T08:15:24.229Z,0.00
2023-01-12T08:16:24.297Z,0.00
2023-01-12T08:17:24.227Z,0.00
2023-01-12T08:18:24.197Z,0.00
2023-01-12T08:19:24.187Z,0.00
2023-01-12T08:20:24.173Z,0.00
2023-01-12T08:21:24.201Z,0.00
2023-01-12T08:22:24.165Z,0.00
2023-01-12T08:23:24.145Z,0.00
2023-01-12T08:24:24.132Z,0.00
2023-01-12T08:25:24.118Z,0.00
2023-01-12T08:26:24.115Z,0.00
2023-01-12T08:27:24.122Z,0.00
2023-01-12T08:28:24.082Z,0.00
2023-01-12T08:29:24.082Z,0.00
2023-01-12T08:30:24.061Z,0.00
2023-01-12T08:31:24.073Z,0.00
2023-01-12T08:32:24.051Z,0.00
2023-01-12T08:33:24.033Z,0.00
2023-01-12T08:34:24.019Z,0.00
2023-01-12T08:35:24.009Z,0.00
2023-01-12T08:36:23.993Z,0.00
2023-01-12T08:37:24.000Z,0.00
2023-01-12T08:38:23.976Z,0.00
2023-01-12T08:39:23.969Z,0.00
2023-01-12T08:40:24.896Z,0.00
2023-01-12T08:41:23.946Z,0.00
2023-01-12T08:42:25.176Z,0.00
2023-01-12T08:43:23.933Z,0.00
2023-01-12T08:44:23.903Z,0.00
2023-01-12T08:45:23.898Z,0.00
2023-01-12T08:46:23.927Z,0.00
2023-01-12T08:47:23.875Z,0.00
2023-01-12T08:48:23.873Z,0.00
2023-01-12T08:49:24.562Z,0.00
2023-01-12T08:50:23.857Z,0.00
2023-01-12T08:51:23.833Z,0.00
2023-01-12T08:52:23.815Z,0.00
2023-01-12T08:53:23.837Z,0.00
2023-01-12T08:54:23.798Z,0.00
2023-01-12T08:55:23.792Z,0.00
2023-01-12T08:56:23.782Z,0.00
2023-01-12T08:57:23.778Z,0.00
2023-01-12T08:58:23.763Z,0.00
2023-01-12T08:59:23.747Z,0.00
2023-01-12T09:00:23.765Z,0.00
2023-01-12T09:01:23.858Z,0.00
2023-01-12T09:02:23.772Z,0.00
2023-01-12T09:03:23.708Z,0.00
2023-01-12T09:04:23.696Z,0.00
2023-01-12T09:05:23.681Z,0.00
2023-01-12T09:06:23.675Z,0.00
2023-01-12T09:07:23.663Z,0.00
2023-01-12T09:08:23.676Z,0.00
2023-01-12T09:09:23.635Z,0.00
2023-01-12T09:10:23.666Z,1.60
2023-01-12T09:11:23.616Z,1.40
2023-01-12T09:12:24.586Z,1.70
2023-01-12T09:13:23.622Z,1.30
2023-01-12T09:14:23.580Z,1.30
2023-01-12T09:15:23.573Z,1.20
2023-01-12T09:16:23.613Z,0.90
2023-01-12T09:17:23.561Z,1.50
2023-01-12T09:18:23.559Z,1.20
2023-01-12T09:19:23.526Z,2.00
2023-01-12T09:20:23.570Z,1.40
2023-01-12T09:21:23.506Z,1.30
2023-01-12T09:22:23.492Z,0.90
2023-01-12T09:23:23.534Z,0.90
2023-01-12T09:24:23.472Z,1.40
2023-01-12T09:25:23.453Z,1.10
2023-01-12T09:26:23.460Z,1.30
2023-01-12T09:27:23.434Z,1.30
2023-01-12T09:28:23.456Z,1.60
2023-01-12T09:29:23.437Z,1.30
2023-01-12T09:30:23.458Z,1.20
2023-01-12T09:31:23.445Z,1.30
2023-01-12T09:32:29.191Z,1.20
2023-01-12T09:33:24.158Z,1.10
2023-01-12T09:34:23.373Z,1.30
2023-01-12T09:35:23.347Z,1.30
2023-01-12T09:36:23.344Z,1.20
2023-01-12T09:37:23.367Z,1.30
2023-01-12T09:38:23.325Z,1.30
2023-01-12T09:39:27.810Z,0.90
2023-01-12T09:40:23.437Z,1.20
2023-01-12T09:41:23.301Z,0.80
2023-01-12T09:42:23.276Z,1.20
2023-01-12T09:43:23.267Z,1.10
2023-01-12T09:44:23.264Z,0.70
2023-01-12T09:45:23.236Z,1.30
2023-01-12T09:46:23.229Z,1.30
2023-01-12T09:47:23.216Z,1.10
2023-01-12T09:48:23.205Z,1.20
2023-01-12T09:49:23.202Z,1.10
2023-01-12T09:50:23.277Z,1.10
2023-01-12T09:51:23.190Z,1.00
2023-01-12T09:52:23.165Z,1.00
2023-01-12T09:53:23.148Z,1.10
2023-01-12T09:54:23.151Z,1.10
2023-01-12T09:55:23.137Z,1.00
2023-01-12T09:56:23.128Z,0.60
2023-01-12T09:57:29.034Z,1.10
2023-01-12T09:58:23.106Z,1.20
2023-01-12T09:59:23.095Z,1.10
2023-01-12T10:00:23.112Z,1.50
2023-01-12T10:01:29.324Z,1.50
2023-01-12T10:02:23.113Z,1.10
2023-01-12T10:03:23.147Z,1.20
2023-01-12T10:04:23.185Z,1.20
2023-01-12T10:05:26.021Z,1.30
2023-01-12T10:06:23.027Z,1.20
2023-01-12T10:07:22.996Z,1.10
2023-01-12T10:08:22.996Z,1.40
2023-01-12T10:09:22.991Z,1.40
2023-01-12T10:10:22.969Z,1.10
2023-01-12T10:11:22.952Z,1.40
2023-01-12T10:12:23.034Z,1.20
2023-01-12T10:13:22.929Z,1.20
2023-01-12T10:14:22.945Z,0.90
2023-01-12T10:15:22.921Z,1.10
2023-01-12T10:16:22.972Z,1.30
2023-01-12T10:17:22.886Z,1.20
2023-01-12T10:18:22.889Z,1.30
2023-01-12T10:19:22.881Z,1.30
2023-01-12T10:20:22.858Z,1.00
2023-01-12T10:21:22.842Z,1.20
2023-01-12T10:22:22.836Z,1.20
2023-01-12T10:23:22.818Z,1.10
2023-01-12T10:24:22.831Z,1.20
2023-01-12T10:25:22.809Z,1.00
2023-01-12T10:26:22.791Z,1.30
2023-01-12T10:27:22.780Z,1.30
2023-01-12T10:28:22.781Z,1.40
2023-01-12T10:29:22.765Z,1.20
2023-01-12T10:30:22.750Z,1.10
2023-01-12T10:31:23.443Z,1.10
2023-01-12T10:32:26.596Z,1.40
2023-01-12T10:33:22.720Z,1.30
2023-01-12T10:34:22.714Z,1.20
2023-01-12T10:35:22.904Z,1.00
2023-01-12T10:36:22.681Z,1.40
2023-01-12T10:37:22.789Z,0.90
2023-01-12T10:38:22.678Z,1.30
2023-01-12T10:39:22.665Z,1.10
2023-01-12T10:40:22.640Z,1.00
2023-01-12T10:41:23.378Z,1.40
2023-01-12T10:42:22.613Z,1.50
2023-01-12T10:43:22.606Z,1.10
2023-01-12T10:44:22.594Z,1.30
2023-01-12T10:45:22.601Z,1.40
2023-01-12T10:46:22.569Z,1.40
2023-01-12T10:47:22.556Z,1.40
2023-01-12T10:48:22.569Z,1.30
2023-01-12T10:49:22.552Z,1.20
2023-01-12T10:50:22.545Z,1.30
2023-01-12T10:51:23.268Z,1.40
2023-01-12T10:52:22.507Z,1.60
2023-01-12T10:53:22.489Z,1.30
2023-01-12T10:54:22.500Z,1.40
2023-01-12T10:55:22.476Z,1.30
2023-01-12T10:56:22.457Z,1.50
2023-01-12T10:57:22.447Z,1.30
2023-01-12T10:58:22.445Z,1.60
2023-01-12T10:59:22.425Z,1.50
2023-01-12T11:00:24.149Z,1.40
2023-01-12T11:01:22.615Z,1.40
2023-01-12T11:02:22.706Z,1.10
2023-01-12T11:03:22.382Z,1.40
2023-01-12T11:04:22.395Z,1.40
2023-01-12T11:05:22.367Z,1.50
2023-01-12T11:06:22.358Z,1.00
2023-01-12T11:07:22.335Z,1.40
2023-01-12T11:08:22.349Z,1.00
2023-01-12T11:09:22.316Z,1.70
2023-01-12T11:10:22.316Z,1.30
2023-01-12T11:11:22.291Z,1.10
2023-01-12T11:12:22.283Z,1.10
2023-01-12T11:13:22.271Z,1.20
2023-01-12T11:14:24.100Z,0.90
2023-01-12T11:15:22.255Z,1.10
2023-01-12T11:16:22.375Z,1.20
2023-01-12T11:17:22.223Z,1.30
2023-01-12T11:18:22.217Z,1.20
2023-01-12T11:19:22.205Z,1.00
2023-01-12T11:20:22.209Z,1.10
2023-01-12T11:21:22.203Z,0.90
2023-01-12T11:22:22.171Z,1.10
2023-01-12T11:23:22.154Z,0.90
2023-01-12T11:24:22.152Z,0.90
2023-01-12T11:25:22.145Z,1.00
2023-01-12T11:26:22.131Z,1.00
2023-01-12T11:27:22.108Z,0.90
2023-01-12T11:28:22.105Z,0.90
2023-01-12T11:29:22.088Z,1.30
2023-01-12T11:30:22.092Z,1.00
2023-01-12T11:31:24.908Z,0.90
2023-01-12T11:32:22.059Z,1.00
2023-01-12T11:33:22.057Z,1.10
2023-01-12T11:34:22.046Z,0.70
2023-01-12T11:35:22.048Z,0.70
2023-01-12T11:36:22.011Z,0.90
2023-01-12T11:37:21.997Z,0.70
2023-01-12T11:38:21.993Z,0.90
2023-01-12T11:39:21.982Z,0.80
2023-01-12T11:40:21.970Z,1.00
2023-01-12T11:41:22.008Z,0.60
2023-01-12T11:42:21.946Z,1.10
2023-01-12T11:43:21.932Z,1.00
2023-01-12T11:44:21.930Z,0.80
2023-01-12T11:45:21.914Z,1.20
2023-01-12T11:46:21.959Z,0.80
2023-01-12T11:47:21.894Z,1.00
2023-01-12T11:48:21.876Z,0.90
2023-01-12T11:49:21.872Z,1.10
2023-01-12T11:50:21.864Z,1.10
2023-01-12T11:51:21.895Z,0.90
2023-01-12T11:52:21.853Z,1.20
2023-01-12T11:53:21.838Z,1.10
2023-01-12T11:54:21.813Z,1.10
2023-01-12T11:55:21.809Z,1.20
2023-01-12T11:56:21.800Z,1.10
2023-01-12T11:57:21.787Z,1.20
2023-01-12T11:58:21.767Z,1.00
2023-01-12T11:59:21.765Z,1.30
2023-01-12T12:00:21.753Z,1.20
2023-01-12T12:01:21.786Z,1.00
2023-01-12T12:02:21.827Z,1.10
2023-01-12T12:03:21.751Z,1.10
2023-01-12T12:04:21.702Z,1.20
2023-01-12T12:05:21.706Z,1.30
2023-01-12T12:06:21.700Z,1.00
2023-01-12T12:07:21.670Z,1.40
2023-01-12T12:08:21.660Z,1.30
2023-01-12T12:09:21.646Z,1.20
2023-01-12T12:10:21.634Z,1.50
2023-01-12T12:11:21.640Z,1.10
2023-01-12T12:12:21.624Z,1.40
2023-01-12T12:13:21.614Z,0.80
2023-01-12T12:14:21.597Z,1.30
2023-01-12T12:15:21.591Z,1.20
2023-01-12T12:16:21.586Z,1.40
2023-01-12T12:17:21.557Z,0.90
2023-01-12T12:18:21.552Z,1.20
2023-01-12T12:19:21.543Z,1.20
2023-01-12T12:20:21.549Z,1.30
2023-01-12T12:21:21.530Z,1.10
2023-01-12T12:22:21.515Z,1.00
2023-01-12T12:23:21.491Z,0.80
2023-01-12T12:24:21.485Z,1.00
2023-01-12T12:25:21.471Z,1.20
2023-01-12T12:26:21.505Z,1.20
2023-01-12T12:27:21.467Z,1.00
2023-01-12T12:28:21.444Z,1.00
2023-01-12T12:29:21.426Z,1.20
2023-01-12T12:30:21.436Z,1.20
2023-01-12T12:31:21.573Z,1.20
2023-01-12T12:32:21.412Z,1.00
2023-01-12T12:33:21.379Z,1.00
2023-01-12T12:34:21.380Z,0.80
2023-01-12T12:35:21.367Z,0.90
2023-01-12T12:36:21.362Z,1.00
2023-01-12T12:37:21.347Z,1.10
2023-01-12T12:38:21.337Z,1.20
2023-01-12T12:39:21.316Z,1.00
2023-01-12T12:40:21.311Z,1.00
2023-01-12T12:41:21.293Z,1.20
2023-01-12T12:42:21.310Z,1.20
2023-01-12T12:43:21.288Z,1.00
2023-01-12T12:44:21.273Z,1.20
2023-01-12T12:45:21.246Z,1.40
2023-01-12T12:46:21.346Z,1.20
2023-01-12T12:47:21.261Z,1.20
2023-01-12T12:48:21.233Z,1.00
2023-01-12T12:49:21.208Z,1.00
2023-01-12T12:50:21.199Z,0.90
2023-01-12T12:51:21.183Z,1.10
2023-01-12T12:52:21.193Z,1.10
2023-01-12T12:53:21.162Z,1.00
2023-01-12T12:54:21.159Z,1.00
2023-01-12T12:55:21.139Z,1.00
2023-01-12T12:56:21.140Z,1.10
2023-01-12T12:57:21.125Z,1.00
2023-01-12T12:58:21.146Z,1.10
2023-01-12T12:59:21.163Z,1.00
2023-01-12T13:00:21.157Z,1.10
2023-01-12T13:01:21.235Z,1.20
2023-01-12T13:02:21.225Z,1.10
2023-01-12T13:03:21.050Z,1.00
2023-01-12T13:04:21.041Z,1.20
2023-01-12T13:05:21.025Z,1.10
2023-01-12T13:06:21.022Z,1.10
2023-01-12T13:07:21.018Z,1.10
2023-01-12T13:08:21.232Z,1.00
2023-01-12T13:09:20.984Z,1.00
2023-01-12T13:10:21.291Z,1.10
2023-01-12T13:11:20.964Z,0.90
2023-01-12T13:12:20.974Z,0.90
2023-01-12T13:13:20.941Z,1.20
2023-01-12T13:14:20.936Z,1.40
2023-01-12T13:15:20.917Z,1.10
2023-01-12T13:16:21.005Z,0.90
2023-01-12T13:17:20.912Z,1.20
2023-01-12T13:18:20.886Z,1.20